createdAt,value
2022-09-01T00:00:13.608Z,20.30
2022-09-01T00:02:43.493Z,20.50
2022-09-01T00:05:11.164Z,20.40
2022-09-01T00:07:38.644Z,20.30
2022-09-01T00:10:07.860Z,20.30
2022-09-01T00:12:36.024Z,20.20
2022-09-01T00:15:05.965Z,20.10
2022-09-01T00:17:34.105Z,20.20
2022-09-01T00:20:01.454Z,20.00
2022-09-01T00:22:29.818Z,20.10
2022-09-01T00:24:57.183Z,20.20
2022-09-01T00:27:27.900Z,20.20
2022-09-01T00:29:59.607Z,20.20
2022-09-01T00:32:28.032Z,20.00
2022-09-01T00:34:55.936Z,19.90
2022-09-01T00:37:23.474Z,19.80
2022-09-01T00:39:50.864Z,19.90
2022-09-01T00:42:18.594Z,20.00
2022-09-01T00:44:45.945Z,20.00
2022-09-01T00:47:15.154Z,19.90
2022-09-01T00:49:46.808Z,19.90
2022-09-01T00:52:28.768Z,19.90
2022-09-01T00:55:08.889Z,19.90
2022-09-01T00:57:36.556Z,19.80
2022-09-01T01:00:26.835Z,19.60
2022-09-01T01:02:56.801Z,19.50
2022-09-01T01:05:34.366Z,19.00
2022-09-01T01:08:03.851Z,18.90
2022-09-01T01:10:33.941Z,18.80
2022-09-01T01:13:05.069Z,18.40
2022-09-01T01:15:32.555Z,18.50
2022-09-01T01:17:59.983Z,18.60
2022-09-01T03:07:01.855Z,17.50
2022-09-01T03:40:50.716Z,17.30
2022-09-01T03:48:10.783Z,17.30
2022-09-01T03:58:04.236Z,17.40
2022-09-01T05:17:45.295Z,17.10
2022-09-01T05:20:20.279Z,17.10
2022-09-01T05:22:59.529Z,17.00
2022-09-01T05:26:23.302Z,17.20
2022-09-01T05:29:06.549Z,17.10
2022-09-01T05:31:53.368Z,17.20
2022-09-01T05:34:39.574Z,17.00
2022-09-01T06:13:36.020Z,17.60
2022-09-01T06:46:14.478Z,17.40
2022-09-01T07:00:27.486Z,17.00
2022-09-01T07:03:13.483Z,17.20
2022-09-01T09:34:37.897Z,18.40
2022-09-01T09:49:54.929Z,18.70
2022-09-01T09:52:23.733Z,18.70
2022-09-01T09:58:16.841Z,18.60
2022-09-01T10:01:05.497Z,18.60
2022-09-01T10:04:11.494Z,18.60
2022-09-01T10:06:42.531Z,18.70
2022-09-01T10:09:17.012Z,18.80
2022-09-01T10:11:49.738Z,18.80
2022-09-01T10:14:35.382Z,18.90
2022-09-01T10:17:16.183Z,18.80
2022-09-01T10:20:21.419Z,19.00
2022-09-01T10:22:50.791Z,19.10
2022-09-01T10:25:29.189Z,19.10
2022-09-01T10:28:02.510Z,19.00
2022-09-01T10:30:31.260Z,19.10
2022-09-01T10:33:07.990Z,19.10
2022-09-01T10:35:45.575Z,19.20
2022-09-01T10:38:25.742Z,19.20
2022-09-01T10:41:08.866Z,19.20
2022-09-01T10:43:52.298Z,19.40
2022-09-01T10:46:26.708Z,19.40
2022-09-01T10:49:18.948Z,19.50
2022-09-01T10:51:56.656Z,19.50
2022-09-01T10:54:55.576Z,19.60
2022-09-01T10:57:42.572Z,19.60
2022-09-01T11:01:10.706Z,19.60
2022-09-01T11:03:52.188Z,19.70
2022-09-01T11:06:42.663Z,19.90
2022-09-01T11:09:25.094Z,20.10
2022-09-01T11:12:07.448Z,20.30
2022-09-01T11:14:46.923Z,20.20
2022-09-01T11:17:31.377Z,20.50
2022-09-01T11:20:09.355Z,20.60
2022-09-01T11:22:46.275Z,20.70
2022-09-01T11:25:42.485Z,20.70
2022-09-01T11:28:17.997Z,20.70
2022-09-01T11:31:06.801Z,20.70
2022-09-01T11:33:52.784Z,20.60
2022-09-01T11:36:29.490Z,20.70
2022-09-01T11:39:33.791Z,21.10
2022-09-01T11:42:07.271Z,21.30
2022-09-01T11:44:35.459Z,21.40
2022-09-01T11:47:17.373Z,21.40
2022-09-01T11:50:09.516Z,21.30
2022-09-01T11:52:39.222Z,21.40
2022-09-01T11:55:08.319Z,21.40
2022-09-01T11:57:39.320Z,21.40
2022-09-01T12:00:14.847Z,21.30
2022-09-01T12:02:50.595Z,21.30
2022-09-01T12:05:39.074Z,21.20
2022-09-01T12:08:14.666Z,21.20
2022-09-01T12:10:44.696Z,21.20
2022-09-01T12:13:24.018Z,21.20
2022-09-01T12:16:17.110Z,21.30
2022-09-01T12:18:51.615Z,21.40
2022-09-01T12:21:31.786Z,21.40
2022-09-01T12:24:19.775Z,21.40
2022-09-01T12:26:49.864Z,21.40
2022-09-01T12:29:18.271Z,21.40
2022-09-01T12:31:48.962Z,21.30
2022-09-01T12:34:38.903Z,21.30
2022-09-01T12:37:06.683Z,21.40
2022-09-01T12:39:43.348Z,21.50
2022-09-01T12:42:27.452Z,21.40
2022-09-01T12:45:14.786Z,21.50
2022-09-01T12:47:48.440Z,21.50
2022-09-01T12:50:17.272Z,21.60
2022-09-01T12:53:04.060Z,21.60
2022-09-01T12:55:49.976Z,21.80
2022-09-01T12:58:25.386Z,21.70
2022-09-01T13:01:03.441Z,21.70
2022-09-01T13:03:32.464Z,21.70
2022-09-01T13:06:03.975Z,21.70
2022-09-01T13:08:37.399Z,21.80
2022-09-01T13:11:15.489Z,21.90
2022-09-01T13:13:43.758Z,22.00
2022-09-01T13:16:13.289Z,21.90
2022-09-01T13:21:32.446Z,22.00
2022-09-01T13:23:59.768Z,22.00
2022-09-01T13:26:27.574Z,22.00
2022-09-01T13:28:54.829Z,22.00
2022-09-01T13:31:30.082Z,22.00
2022-09-01T13:34:21.752Z,22.00
2022-09-01T13:36:51.030Z,22.00
2022-09-01T13:39:19.342Z,22.10
2022-09-01T13:41:48.539Z,22.20
2022-09-01T13:44:17.292Z,22.20
2022-09-01T13:47:28.520Z,22.10
2022-09-01T13:52:21.942Z,22.10
2022-09-01T13:54:49.190Z,22.10
2022-09-01T13:57:16.851Z,22.30
2022-09-01T13:59:44.710Z,22.20
2022-09-01T14:02:12.005Z,22.30
2022-09-01T14:04:39.597Z,22.30
2022-09-01T14:07:07.276Z,22.20
2022-09-01T14:09:34.904Z,22.20
2022-09-01T14:12:02.342Z,22.10
2022-09-01T14:15:10.613Z,22.10
2022-09-01T14:17:17.489Z,22.20
2022-09-01T14:19:50.532Z,22.20
2022-09-01T14:22:17.939Z,22.10
2022-09-01T14:24:46.012Z,22.20
2022-09-01T14:27:13.530Z,22.10
2022-09-01T14:32:08.124Z,22.10
2022-09-01T14:34:36.596Z,22.10
2022-09-01T14:37:04.422Z,22.10
2022-09-01T14:39:32.019Z,22.10
2022-09-01T14:41:59.312Z,22.10
2022-09-01T14:44:26.654Z,22.10
2022-09-01T14:46:54.801Z,22.00
2022-09-01T14:49:22.635Z,22.00
2022-09-01T14:54:39.760Z,22.00
2022-09-01T14:59:54.593Z,22.00
2022-09-01T15:02:22.226Z,22.00
2022-09-01T15:04:49.956Z,22.00
2022-09-01T15:07:17.852Z,21.90
2022-09-01T15:09:45.513Z,21.90
2022-09-01T15:12:12.886Z,21.90
2022-09-01T15:14:40.172Z,21.90
2022-09-01T15:17:08.074Z,21.90
2022-09-01T15:19:35.611Z,21.90
2022-09-01T15:22:03.578Z,21.90
2022-09-01T15:24:30.816Z,21.90
2022-09-01T15:26:58.271Z,21.90
2022-09-01T15:29:25.891Z,21.90
2022-09-01T15:31:54.544Z,21.90
2022-09-01T15:34:24.548Z,21.90
2022-09-01T15:36:51.912Z,21.90
2022-09-01T15:39:19.331Z,22.00
2022-09-01T15:41:46.650Z,22.00
2022-09-01T15:44:13.863Z,21.90
2022-09-01T15:46:43.285Z,21.90
2022-09-01T15:49:12.718Z,21.90
2022-09-01T15:51:42.138Z,21.90
2022-09-01T15:54:18.637Z,21.90
2022-09-01T15:56:47.477Z,21.90
2022-09-01T15:59:15.548Z,21.90
2022-09-01T16:01:45.703Z,21.90
2022-09-01T16:04:20.008Z,21.90
2022-09-01T16:06:49.741Z,21.90
2022-09-01T16:09:18.773Z,21.80
2022-09-01T16:11:46.066Z,21.80
2022-09-01T16:14:14.393Z,21.80
2022-09-01T16:16:59.839Z,21.80
2022-09-01T16:19:46.097Z,21.80
2022-09-01T16:22:21.669Z,21.70
2022-09-01T16:24:51.909Z,21.60
2022-09-01T16:27:22.721Z,21.60
2022-09-01T16:29:56.343Z,21.60
2022-09-01T16:32:23.887Z,21.50
2022-09-01T16:34:52.284Z,21.40
2022-09-01T16:37:38.968Z,21.40
2022-09-01T16:40:37.976Z,21.30
2022-09-01T16:43:17.833Z,21.20
2022-09-01T16:45:48.239Z,21.20
2022-09-01T16:48:41.718Z,21.20
2022-09-01T16:51:32.074Z,21.10
2022-09-01T16:54:09.289Z,21.10
2022-09-01T16:56:55.334Z,21.00
2022-09-01T16:59:31.383Z,20.90
2022-09-01T17:02:43.992Z,20.90
2022-09-01T17:05:32.749Z,20.80
2022-09-01T17:08:23.547Z,20.80
2022-09-01T17:11:18.865Z,20.70
2022-09-01T17:13:55.605Z,20.70
2022-09-01T17:16:37.430Z,20.60
2022-09-01T17:19:13.871Z,20.60
2022-09-01T17:21:46.339Z,20.60
2022-09-01T17:24:46.562Z,20.50
2022-09-01T17:27:34.127Z,20.40
2022-09-01T17:30:07.372Z,20.40
2022-09-01T17:32:48.122Z,20.40
2022-09-01T17:35:32.735Z,20.30
2022-09-01T17:38:14.209Z,20.30
2022-09-01T17:40:41.475Z,20.20
2022-09-01T17:43:27.446Z,20.20
2022-09-01T17:46:20.496Z,20.10
2022-09-01T17:49:11.119Z,20.10
2022-09-01T17:51:52.972Z,20.00
2022-09-01T17:54:44.354Z,20.00
2022-09-01T17:57:33.367Z,19.90
2022-09-01T18:00:34.260Z,19.90
2022-09-01T18:03:10.899Z,19.80
2022-09-01T18:05:46.264Z,19.80
2022-09-01T18:08:29.941Z,19.80
2022-09-01T18:11:06.753Z,19.70
2022-09-01T18:14:02.401Z,19.70
2022-09-01T18:16:35.107Z,19.60
2022-09-01T18:19:16.631Z,19.50
2022-09-01T18:21:56.740Z,19.60
2022-09-01T18:24:34.377Z,19.50
2022-09-01T18:27:02.000Z,19.50
2022-09-01T18:29:31.762Z,19.40
2022-09-01T18:32:12.031Z,19.40
2022-09-01T18:35:00.951Z,19.30
2022-09-01T18:37:49.745Z,19.30
2022-09-01T18:40:33.786Z,19.20
2022-09-01T18:43:18.198Z,19.20
2022-09-01T18:46:04.193Z,19.20
2022-09-01T18:48:51.653Z,19.10
2022-09-01T18:51:45.331Z,19.10
2022-09-01T18:54:38.266Z,19.10
2022-09-01T18:57:08.013Z,19.00
2022-09-01T18:59:53.904Z,19.00
2022-09-01T19:02:27.536Z,19.00
2022-09-01T19:05:17.205Z,18.90
2022-09-01T19:08:06.467Z,18.90
2022-09-01T19:10:37.362Z,18.90
2022-09-01T19:13:28.782Z,18.90
2022-09-01T19:16:31.482Z,18.90
2022-09-01T19:19:33.517Z,18.90
2022-09-01T19:22:02.645Z,18.80
2022-09-01T19:24:47.029Z,18.80
2022-09-01T19:27:20.739Z,18.80
2022-09-01T19:29:53.816Z,18.80
2022-09-01T19:32:24.309Z,18.80
2022-09-01T19:35:14.669Z,18.80
2022-09-01T19:37:45.642Z,18.70
2022-09-01T19:40:24.103Z,18.70
2022-09-01T19:43:16.319Z,18.70
2022-09-01T19:57:33.334Z,18.70
2022-09-01T20:00:19.492Z,18.60
2022-09-01T20:02:50.152Z,18.60
2022-09-01T20:08:40.024Z,18.40
